sensor_id;sensor_type;location;lat;lon;timestamp;P1;durP1;ratioP1;P2;durP2;ratioP2
33738;SDS011;20063;51.730;11.110;2023-02-26T00:02:17;9.10;;;3.00;;
33738;SDS011;20063;51.730;11.110;2023-02-26T00:04:42;12.85;;;3.10;;
33738;SDS011;20063;51.730;11.110;2023-02-26T00:07:08;8.82;;;2.45;;
33738;SDS011;20063;51.730;11.110;2023-02-26T00:09:34;6.05;;;2.38;;
33738;SDS011;20063;51.730;11.110;2023-02-26T00:11:59;18.92;;;4.95;;
33738;SDS011;20063;51.730;11.110;2023-02-26T00:14:25;17.42;;;3.30;;
33738;SDS011;20063;51.730;11.110;2023-02-26T00:16:57;12.85;;;2.83;;
33738;SDS011;20063;51.730;11.110;2023-02-26T00:19:37;13.68;;;2.88;;
33738;SDS011;20063;51.730;11.110;2023-02-26T00:22:03;11.13;;;5.28;;
33738;SDS011;20063;51.730;11.110;2023-02-26T00:24:28;15.18;;;2.67;;
33738;SDS011;20063;51.730;11.110;2023-02-26T00:26:54;10.48;;;3.42;;
33738;SDS011;20063;51.730;11.110;2023-02-26T00:29:20;8.82;;;2.78;;
33738;SDS011;20063;51.730;11.110;2023-02-26T00:31:46;10.27;;;2.85;;
33738;SDS011;20063;51.730;11.110;2023-02-26T00:34:11;10.15;;;2.83;;
33738;SDS011;20063;51.730;11.110;2023-02-26T00:36:45;14.98;;;2.58;;
33738;SDS011;20063;51.730;11.110;2023-02-26T00:47:15;17.55;;;3.00;;
33738;SDS011;20063;51.730;11.110;2023-02-26T00:52:45;8.90;;;2.72;;
33738;SDS011;20063;51.730;11.110;2023-02-26T00:55:30;13.70;;;4.72;;
33738;SDS011;20063;51.730;11.110;2023-02-26T00:57:55;9.68;;;2.85;;
33738;SDS011;20063;51.730;11.110;2023-02-26T01:00:21;14.63;;;3.22;;
33738;SDS011;20063;51.730;11.110;2023-02-26T01:02:47;16.70;;;2.90;;
33738;SDS011;20063;51.730;11.110;2023-02-26T01:05:13;9.10;;;2.63;;
33738;SDS011;20063;51.730;11.110;2023-02-26T01:08:04;8.50;;;2.58;;
33738;SDS011;20063;51.730;11.110;2023-02-26T01:10:25;7.00;;;2.60;;
33738;SDS011;20063;51.730;11.110;2023-02-26T01:12:52;13.80;;;2.72;;
33738;SDS011;20063;51.730;11.110;2023-02-26T01:15:20;10.02;;;2.50;;
33738;SDS011;20063;51.730;11.110;2023-02-26T01:17:50;7.90;;;2.92;;
33738;SDS011;20063;51.730;11.110;2023-02-26T01:20:39;9.18;;;2.63;;
33738;SDS011;20063;51.730;11.110;2023-02-26T01:23:14;8.25;;;2.75;;
33738;SDS011;20063;51.730;11.110;2023-02-26T01:25:43;9.30;;;2.72;;
33738;SDS011;20063;51.730;11.110;2023-02-26T01:28:21;8.32;;;2.92;;
33738;SDS011;20063;51.730;11.110;2023-02-26T01:30:47;6.90;;;2.50;;
33738;SDS011;20063;51.730;11.110;2023-02-26T01:33:24;12.70;;;3.95;;
33738;SDS011;20063;51.730;11.110;2023-02-26T01:36:00;10.02;;;2.67;;
33738;SDS011;20063;51.730;11.110;2023-02-26T01:38:41;6.53;;;2.70;;
33738;SDS011;20063;51.730;11.110;2023-02-26T01:41:30;17.92;;;2.67;;
33738;SDS011;20063;51.730;11.110;2023-02-26T01:44:11;10.93;;;2.75;;
33738;SDS011;20063;51.730;11.110;2023-02-26T01:49:34;8.98;;;2.55;;
33738;SDS011;20063;51.730;11.110;2023-02-26T01:52:01;11.98;;;2.75;;
33738;SDS011;20063;51.730;11.110;2023-02-26T01:54:29;10.93;;;2.72;;
33738;SDS011;20063;51.730;11.110;2023-02-26T01:57:00;11.95;;;2.58;;
33738;SDS011;20063;51.730;11.110;2023-02-26T01:59:38;8.13;;;3.72;;
33738;SDS011;20063;51.730;11.110;2023-02-26T02:02:08;6.55;;;3.10;;
33738;SDS011;20063;51.730;11.110;2023-02-26T02:04:35;6.70;;;2.45;;
33738;SDS011;20063;51.730;11.110;2023-02-26T02:07:02;5.70;;;2.70;;
33738;SDS011;20063;51.730;11.110;2023-02-26T02:09:29;4.10;;;2.35;;
33738;SDS011;20063;51.730;11.110;2023-02-26T02:15:07;6.70;;;2.67;;
33738;SDS011;20063;51.730;11.110;2023-02-26T02:23:19;5.63;;;2.42;;
33738;SDS011;20063;51.730;11.110;2023-02-26T02:31:19;6.20;;;2.08;;
33738;SDS011;20063;51.730;11.110;2023-02-26T02:36:34;8.98;;;2.65;;
33738;SDS011;20063;51.730;11.110;2023-02-26T02:39:14;11.82;;;2.95;;
33738;SDS011;20063;51.730;11.110;2023-02-26T02:42:01;5.68;;;2.42;;
33738;SDS011;20063;51.730;11.110;2023-02-26T02:46:58;12.98;;;3.00;;
33738;SDS011;20063;51.730;11.110;2023-02-26T02:52:07;8.95;;;2.78;;
33738;SDS011;20063;51.730;11.110;2023-02-26T02:54:54;8.18;;;2.80;;
33738;SDS011;20063;51.730;11.110;2023-02-26T02:57:40;16.88;;;3.28;;
33738;SDS011;20063;51.730;11.110;2023-02-26T03:00:11;8.73;;;2.92;;
33738;SDS011;20063;51.730;11.110;2023-02-26T03:02:42;8.45;;;2.85;;
33738;SDS011;20063;51.730;11.110;2023-02-26T03:05:16;8.07;;;3.13;;
33738;SDS011;20063;51.730;11.110;2023-02-26T03:07:44;13.63;;;3.42;;
33738;SDS011;20063;51.730;11.110;2023-02-26T03:10:14;9.63;;;3.45;;
33738;SDS011;20063;51.730;11.110;2023-02-26T03:12:40;9.93;;;3.05;;
33738;SDS011;20063;51.730;11.110;2023-02-26T03:15:06;11.75;;;3.78;;
33738;SDS011;20063;51.730;11.110;2023-02-26T03:17:34;10.20;;;3.38;;
33738;SDS011;20063;51.730;11.110;2023-02-26T03:25:39;12.32;;;3.95;;
33738;SDS011;20063;51.730;11.110;2023-02-26T03:31:05;15.15;;;3.78;;
33738;SDS011;20063;51.730;11.110;2023-02-26T03:34:00;12.02;;;2.95;;
33738;SDS011;20063;51.730;11.110;2023-02-26T03:37:16;11.65;;;3.13;;
33738;SDS011;20063;51.730;11.110;2023-02-26T03:39:28;7.05;;;2.90;;
33738;SDS011;20063;51.730;11.110;2023-02-26T03:42:10;10.43;;;3.83;;
33738;SDS011;20063;51.730;11.110;2023-02-26T03:44:52;9.27;;;3.70;;
33738;SDS011;20063;51.730;11.110;2023-02-26T03:47:21;19.92;;;3.88;;
33738;SDS011;20063;51.730;11.110;2023-02-26T03:49:53;12.52;;;3.72;;
33738;SDS011;20063;51.730;11.110;2023-02-26T03:52:23;7.88;;;2.75;;
33738;SDS011;20063;51.730;11.110;2023-02-26T03:54:57;7.32;;;3.10;;
33738;SDS011;20063;51.730;11.110;2023-02-26T03:57:35;18.02;;;3.58;;
33738;SDS011;20063;51.730;11.110;2023-02-26T04:00:01;7.22;;;2.67;;
33738;SDS011;20063;51.730;11.110;2023-02-26T04:02:39;4.65;;;2.80;;
33738;SDS011;20063;51.730;11.110;2023-02-26T04:05:32;5.78;;;3.08;;
33738;SDS011;20063;51.730;11.110;2023-02-26T04:08:01;9.77;;;3.10;;
33738;SDS011;20063;51.730;11.110;2023-02-26T04:10:39;8.50;;;2.97;;
33738;SDS011;20063;51.730;11.110;2023-02-26T04:13:09;12.50;;;3.03;;
33738;SDS011;20063;51.730;11.110;2023-02-26T04:15:37;8.85;;;2.90;;
33738;SDS011;20063;51.730;11.110;2023-02-26T04:18:03;5.20;;;2.72;;
33738;SDS011;20063;51.730;11.110;2023-02-26T04:20:28;9.30;;;2.85;;
33738;SDS011;20063;51.730;11.110;2023-02-26T04:22:54;6.05;;;2.58;;
33738;SDS011;20063;51.730;11.110;2023-02-26T04:25:20;15.88;;;3.45;;
33738;SDS011;20063;51.730;11.110;2023-02-26T04:27:48;6.38;;;2.63;;
33738;SDS011;20063;51.730;11.110;2023-02-26T04:30:14;11.05;;;3.75;;
33738;SDS011;20063;51.730;11.110;2023-02-26T04:32:40;8.75;;;3.15;;
33738;SDS011;20063;51.730;11.110;2023-02-26T04:35:05;10.20;;;3.05;;
33738;SDS011;20063;51.730;11.110;2023-02-26T04:37:31;13.20;;;3.08;;
33738;SDS011;20063;51.730;11.110;2023-02-26T04:39:57;8.75;;;3.22;;
33738;SDS011;20063;51.730;11.110;2023-02-26T04:42:22;7.40;;;2.75;;
33738;SDS011;20063;51.730;11.110;2023-02-26T04:44:48;9.35;;;3.63;;
33738;SDS011;20063;51.730;11.110;2023-02-26T04:47:13;6.93;;;2.95;;
33738;SDS011;20063;51.730;11.110;2023-02-26T04:49:39;19.60;;;3.05;;
33738;SDS011;20063;51.730;11.110;2023-02-26T04:52:04;7.35;;;3.33;;
33738;SDS011;20063;51.730;11.110;2023-02-26T04:54:30;13.18;;;3.22;;
33738;SDS011;20063;51.730;11.110;2023-02-26T04:56:56;10.60;;;3.75;;
33738;SDS011;20063;51.730;11.110;2023-02-26T04:59:22;8.20;;;3.05;;
33738;SDS011;20063;51.730;11.110;2023-02-26T05:01:47;9.43;;;2.85;;
33738;SDS011;20063;51.730;11.110;2023-02-26T05:04:13;10.20;;;2.83;;
33738;SDS011;20063;51.730;11.110;2023-02-26T05:06:38;10.32;;;2.70;;
33738;SDS011;20063;51.730;11.110;2023-02-26T05:09:05;10.38;;;3.28;;
33738;SDS011;20063;51.730;11.110;2023-02-26T05:11:31;12.82;;;2.85;;
33738;SDS011;20063;51.730;11.110;2023-02-26T05:13:57;9.45;;;3.05;;
33738;SDS011;20063;51.730;11.110;2023-02-26T05:16:22;8.65;;;3.00;;
33738;SDS011;20063;51.730;11.110;2023-02-26T05:18:48;5.82;;;2.60;;
33738;SDS011;20063;51.730;11.110;2023-02-26T05:21:14;11.35;;;2.97;;
33738;SDS011;20063;51.730;11.110;2023-02-26T05:23:39;8.18;;;2.63;;
33738;SDS011;20063;51.730;11.110;2023-02-26T05:26:05;11.15;;;2.75;;
33738;SDS011;20063;51.730;11.110;2023-02-26T05:28:30;9.95;;;2.78;;
33738;SDS011;20063;51.730;11.110;2023-02-26T05:30:57;10.10;;;3.15;;
33738;SDS011;20063;51.730;11.110;2023-02-26T05:33:23;8.75;;;3.38;;
33738;SDS011;20063;51.730;11.110;2023-02-26T05:35:50;15.35;;;3.33;;
33738;SDS011;20063;51.730;11.110;2023-02-26T05:38:16;9.73;;;2.95;;
33738;SDS011;20063;51.730;11.110;2023-02-26T05:40:43;11.63;;;2.97;;
33738;SDS011;20063;51.730;11.110;2023-02-26T05:43:08;12.73;;;2.90;;
33738;SDS011;20063;51.730;11.110;2023-02-26T05:45:34;4.15;;;2.45;;
33738;SDS011;20063;51.730;11.110;2023-02-26T05:48:01;10.32;;;3.42;;
33738;SDS011;20063;51.730;11.110;2023-02-26T05:50:27;11.80;;;2.40;;
33738;SDS011;20063;51.730;11.110;2023-02-26T05:52:54;7.03;;;2.80;;
33738;SDS011;20063;51.730;11.110;2023-02-26T05:55:21;6.70;;;2.72;;
33738;SDS011;20063;51.730;11.110;2023-02-26T05:57:47;12.00;;;3.00;;
33738;SDS011;20063;51.730;11.110;2023-02-26T06:00:12;8.70;;;2.33;;
33738;SDS011;20063;51.730;11.110;2023-02-26T06:02:39;5.82;;;2.72;;
33738;SDS011;20063;51.730;11.110;2023-02-26T06:05:05;14.77;;;3.20;;
33738;SDS011;20063;51.730;11.110;2023-02-26T06:07:31;8.27;;;2.75;;
33738;SDS011;20063;51.730;11.110;2023-02-26T06:09:57;7.80;;;3.30;;
33738;SDS011;20063;51.730;11.110;2023-02-26T06:12:22;5.57;;;2.45;;
33738;SDS011;20063;51.730;11.110;2023-02-26T06:14:48;10.40;;;2.83;;
33738;SDS011;20063;51.730;11.110;2023-02-26T06:17:13;5.95;;;2.50;;
33738;SDS011;20063;51.730;11.110;2023-02-26T06:19:39;4.07;;;2.33;;
33738;SDS011;20063;51.730;11.110;2023-02-26T06:22:04;10.30;;;2.78;;
33738;SDS011;20063;51.730;11.110;2023-02-26T06:24:31;9.13;;;2.45;;
33738;SDS011;20063;51.730;11.110;2023-02-26T06:26:56;12.18;;;2.53;;
33738;SDS011;20063;51.730;11.110;2023-02-26T06:29:22;6.88;;;3.13;;
33738;SDS011;20063;51.730;11.110;2023-02-26T06:31:47;7.15;;;2.80;;
33738;SDS011;20063;51.730;11.110;2023-02-26T06:34:13;7.25;;;2.70;;
33738;SDS011;20063;51.730;11.110;2023-02-26T06:36:39;7.05;;;2.70;;
33738;SDS011;20063;51.730;11.110;2023-02-26T06:39:05;7.70;;;2.33;;
33738;SDS011;20063;51.730;11.110;2023-02-26T06:41:31;7.53;;;2.88;;
33738;SDS011;20063;51.730;11.110;2023-02-26T06:43:57;16.95;;;2.90;;
33738;SDS011;20063;51.730;11.110;2023-02-26T06:46:23;5.00;;;2.28;;
33738;SDS011;20063;51.730;11.110;2023-02-26T06:48:48;11.27;;;3.17;;
33738;SDS011;20063;51.730;11.110;2023-02-26T06:51:14;9.68;;;2.95;;
33738;SDS011;20063;51.730;11.110;2023-02-26T06:53:41;9.02;;;3.80;;
33738;SDS011;20063;51.730;11.110;2023-02-26T06:56:06;9.73;;;2.72;;
33738;SDS011;20063;51.730;11.110;2023-02-26T06:58:32;5.18;;;3.25;;
33738;SDS011;20063;51.730;11.110;2023-02-26T07:00:58;11.38;;;2.63;;
33738;SDS011;20063;51.730;11.110;2023-02-26T07:03:24;8.60;;;2.67;;
33738;SDS011;20063;51.730;11.110;2023-02-26T07:05:49;6.85;;;2.75;;
33738;SDS011;20063;51.730;11.110;2023-02-26T07:08:16;9.10;;;3.17;;
33738;SDS011;20063;51.730;11.110;2023-02-26T07:10:42;10.30;;;2.63;;
33738;SDS011;20063;51.730;11.110;2023-02-26T07:13:10;9.20;;;2.50;;
33738;SDS011;20063;51.730;11.110;2023-02-26T07:15:35;10.40;;;3.58;;
33738;SDS011;20063;51.730;11.110;2023-02-26T07:18:01;7.82;;;3.22;;
33738;SDS011;20063;51.730;11.110;2023-02-26T07:20:26;5.85;;;3.08;;
33738;SDS011;20063;51.730;11.110;2023-02-26T07:22:53;10.77;;;4.05;;
33738;SDS011;20063;51.730;11.110;2023-02-26T07:25:19;6.65;;;2.58;;
33738;SDS011;20063;51.730;11.110;2023-02-26T07:27:44;9.63;;;2.75;;
33738;SDS011;20063;51.730;11.110;2023-02-26T07:30:11;10.05;;;2.80;;
33738;SDS011;20063;51.730;11.110;2023-02-26T07:32:38;13.05;;;4.25;;
33738;SDS011;20063;51.730;11.110;2023-02-26T07:35:03;6.57;;;2.58;;
33738;SDS011;20063;51.730;11.110;2023-02-26T07:37:29;8.23;;;2.92;;
33738;SDS011;20063;51.730;11.110;2023-02-26T07:39:55;5.22;;;2.53;;
33738;SDS011;20063;51.730;11.110;2023-02-26T07:42:21;5.47;;;3.05;;
33738;SDS011;20063;51.730;11.110;2023-02-26T07:44:46;11.93;;;2.95;;
33738;SDS011;20063;51.730;11.110;2023-02-26T07:47:12;5.00;;;2.90;;
33738;SDS011;20063;51.730;11.110;2023-02-26T07:49:38;11.30;;;2.83;;
33738;SDS011;20063;51.730;11.110;2023-02-26T07:52:04;4.50;;;2.78;;
33738;SDS011;20063;51.730;11.110;2023-02-26T07:54:31;4.38;;;2.70;;
33738;SDS011;20063;51.730;11.110;2023-02-26T08:00:22;9.50;;;3.08;;
33738;SDS011;20063;51.730;11.110;2023-02-26T08:02:48;9.00;;;2.83;;
33738;SDS011;20063;51.730;11.110;2023-02-26T08:05:13;11.88;;;3.55;;
33738;SDS011;20063;51.730;11.110;2023-02-26T08:07:39;12.98;;;2.90;;
33738;SDS011;20063;51.730;11.110;2023-02-26T08:10:04;8.80;;;2.45;;
33738;SDS011;20063;51.730;11.110;2023-02-26T08:12:30;6.05;;;2.50;;
33738;SDS011;20063;51.730;11.110;2023-02-26T08:14:57;5.63;;;2.88;;
33738;SDS011;20063;51.730;11.110;2023-02-26T08:17:22;10.00;;;2.58;;
33738;SDS011;20063;51.730;11.110;2023-02-26T08:19:48;5.57;;;2.53;;
33738;SDS011;20063;51.730;11.110;2023-02-26T08:22:13;4.60;;;1.98;;
33738;SDS011;20063;51.730;11.110;2023-02-26T08:24:39;10.52;;;3.67;;
33738;SDS011;20063;51.730;11.110;2023-02-26T08:27:04;8.60;;;1.88;;
33738;SDS011;20063;51.730;11.110;2023-02-26T08:29:30;8.65;;;2.72;;
33738;SDS011;20063;51.730;11.110;2023-02-26T08:31:56;8.50;;;2.20;;
33738;SDS011;20063;51.730;11.110;2023-02-26T08:34:21;4.78;;;1.95;;
33738;SDS011;20063;51.730;11.110;2023-02-26T08:36:47;10.52;;;2.25;;
33738;SDS011;20063;51.730;11.110;2023-02-26T08:39:14;5.57;;;2.25;;
33738;SDS011;20063;51.730;11.110;2023-02-26T08:41:39;9.27;;;2.30;;
33738;SDS011;20063;51.730;11.110;2023-02-26T08:44:05;5.97;;;2.00;;
33738;SDS011;20063;51.730;11.110;2023-02-26T08:46:32;4.18;;;2.03;;
33738;SDS011;20063;51.730;11.110;2023-02-26T08:48:58;6.07;;;3.13;;
33738;SDS011;20063;51.730;11.110;2023-02-26T08:51:26;7.63;;;2.60;;
33738;SDS011;20063;51.730;11.110;2023-02-26T08:53:51;5.65;;;3.00;;
33738;SDS011;20063;51.730;11.110;2023-02-26T08:56:17;10.98;;;4.05;;
33738;SDS011;20063;51.730;11.110;2023-02-26T08:58:43;5.30;;;2.15;;
33738;SDS011;20063;51.730;11.110;2023-02-26T09:01:08;6.55;;;2.70;;
33738;SDS011;20063;51.730;11.110;2023-02-26T09:03:34;7.13;;;2.65;;
33738;SDS011;20063;51.730;11.110;2023-02-26T09:05:59;7.47;;;2.72;;
33738;SDS011;20063;51.730;11.110;2023-02-26T09:08:25;7.50;;;2.45;;
33738;SDS011;20063;51.730;11.110;2023-02-26T09:10:51;2.15;;;1.92;;
33738;SDS011;20063;51.730;11.110;2023-02-26T09:13:17;10.90;;;2.50;;
33738;SDS011;20063;51.730;11.110;2023-02-26T09:15:42;6.70;;;2.40;;
33738;SDS011;20063;51.730;11.110;2023-02-26T09:18:08;5.45;;;1.90;;
33738;SDS011;20063;51.730;11.110;2023-02-26T09:20:39;6.30;;;2.22;;
33738;SDS011;20063;51.730;11.110;2023-02-26T09:23:06;5.25;;;2.00;;
33738;SDS011;20063;51.730;11.110;2023-02-26T09:25:32;7.70;;;2.40;;
33738;SDS011;20063;51.730;11.110;2023-02-26T09:27:57;10.00;;;2.95;;
33738;SDS011;20063;51.730;11.110;2023-02-26T09:30:23;6.97;;;2.35;;
33738;SDS011;20063;51.730;11.110;2023-02-26T09:32:49;4.63;;;2.25;;
33738;SDS011;20063;51.730;11.110;2023-02-26T09:35:14;3.50;;;1.90;;
33738;SDS011;20063;51.730;11.110;2023-02-26T09:37:40;4.20;;;1.88;;
33738;SDS011;20063;51.730;11.110;2023-02-26T09:40:05;3.92;;;2.30;;
33738;SDS011;20063;51.730;11.110;2023-02-26T09:45:30;8.18;;;2.30;;
33738;SDS011;20063;51.730;11.110;2023-02-26T09:48:00;10.77;;;1.77;;
33738;SDS011;20063;51.730;11.110;2023-02-26T09:50:48;7.22;;;2.83;;
33738;SDS011;20063;51.730;11.110;2023-02-26T09:53:50;5.38;;;3.10;;
33738;SDS011;20063;51.730;11.110;2023-02-26T09:56:16;4.88;;;3.50;;
33738;SDS011;20063;51.730;11.110;2023-02-26T09:58:45;5.55;;;3.10;;
33738;SDS011;20063;51.730;11.110;2023-02-26T10:06:28;10.23;;;2.42;;
33738;SDS011;20063;51.730;11.110;2023-02-26T10:09:19;6.28;;;1.77;;
33738;SDS011;20063;51.730;11.110;2023-02-26T10:12:15;2.50;;;1.52;;
33738;SDS011;20063;51.730;11.110;2023-02-26T10:14:45;4.38;;;1.80;;
33738;SDS011;20063;51.730;11.110;2023-02-26T10:17:23;3.55;;;1.60;;
33738;SDS011;20063;51.730;11.110;2023-02-26T10:19:58;7.13;;;2.22;;
33738;SDS011;20063;51.730;11.110;2023-02-26T10:22:29;7.28;;;2.20;;
33738;SDS011;20063;51.730;11.110;2023-02-26T10:25:08;6.90;;;2.45;;
33738;SDS011;20063;51.730;11.110;2023-02-26T10:27:51;5.80;;;2.28;;
33738;SDS011;20063;51.730;11.110;2023-02-26T10:30:40;5.18;;;2.25;;
33738;SDS011;20063;51.730;11.110;2023-02-26T10:35:52;4.65;;;1.80;;
33738;SDS011;20063;51.730;11.110;2023-02-26T10:38:23;2.50;;;1.50;;
33738;SDS011;20063;51.730;11.110;2023-02-26T10:43:34;4.85;;;1.50;;
33738;SDS011;20063;51.730;11.110;2023-02-26T10:52:14;7.55;;;1.80;;
33738;SDS011;20063;51.730;11.110;2023-02-26T10:54:45;6.68;;;1.73;;
33738;SDS011;20063;51.730;11.110;2023-02-26T10:57:27;2.22;;;1.60;;
33738;SDS011;20063;51.730;11.110;2023-02-26T10:59:59;4.43;;;1.48;;
33738;SDS011;20063;51.730;11.110;2023-02-26T11:02:41;5.57;;;2.65;;
33738;SDS011;20063;51.730;11.110;2023-02-26T11:05:14;4.32;;;1.83;;
33738;SDS011;20063;51.730;11.110;2023-02-26T11:07:43;4.00;;;1.83;;
33738;SDS011;20063;51.730;11.110;2023-02-26T11:10:19;2.70;;;2.03;;
33738;SDS011;20063;51.730;11.110;2023-02-26T11:12:48;3.72;;;1.80;;
33738;SDS011;20063;51.730;11.110;2023-02-26T11:15:16;2.50;;;1.70;;
33738;SDS011;20063;51.730;11.110;2023-02-26T11:17:44;5.05;;;1.75;;
33738;SDS011;20063;51.730;11.110;2023-02-26T11:20:14;5.30;;;1.88;;
33738;SDS011;20063;51.730;11.110;2023-02-26T11:22:42;2.83;;;1.75;;
33738;SDS011;20063;51.730;11.110;2023-02-26T11:25:18;5.03;;;1.70;;
33738;SDS011;20063;51.730;11.110;2023-02-26T11:27:48;9.48;;;2.10;;
33738;SDS011;20063;51.730;11.110;2023-02-26T11:30:20;8.18;;;1.65;;
33738;SDS011;20063;51.730;11.110;2023-02-26T11:32:49;6.15;;;1.48;;
33738;SDS011;20063;51.730;11.110;2023-02-26T11:35:18;2.05;;;1.67;;
33738;SDS011;20063;51.730;11.110;2023-02-26T11:37:48;8.07;;;2.35;;
33738;SDS011;20063;51.730;11.110;2023-02-26T11:43:02;8.48;;;1.58;;
33738;SDS011;20063;51.730;11.110;2023-02-26T11:45:33;6.10;;;2.80;;
33738;SDS011;20063;51.730;11.110;2023-02-26T11:48:05;6.78;;;1.90;;
33738;SDS011;20063;51.730;11.110;2023-02-26T11:50:37;6.97;;;2.30;;
33738;SDS011;20063;51.730;11.110;2023-02-26T11:53:09;8.57;;;2.08;;
33738;SDS011;20063;51.730;11.110;2023-02-26T11:55:43;6.93;;;1.70;;
33738;SDS011;20063;51.730;11.110;2023-02-26T11:58:17;5.65;;;1.77;;
33738;SDS011;20063;51.730;11.110;2023-02-26T12:00:47;5.40;;;2.00;;
33738;SDS011;20063;51.730;11.110;2023-02-26T12:03:17;2.97;;;1.67;;
33738;SDS011;20063;51.730;11.110;2023-02-26T12:05:46;3.83;;;1.73;;
33738;SDS011;20063;51.730;11.110;2023-02-26T12:08:16;6.32;;;2.60;;
33738;SDS011;20063;51.730;11.110;2023-02-26T12:14:00;2.63;;;1.70;;
33738;SDS011;20063;51.730;11.110;2023-02-26T12:19:05;5.00;;;1.60;;
33738;SDS011;20063;51.730;11.110;2023-02-26T12:21:49;4.30;;;1.58;;
33738;SDS011;20063;51.730;11.110;2023-02-26T12:24:36;9.20;;;1.95;;
33738;SDS011;20063;51.730;11.110;2023-02-26T12:30:23;3.85;;;2.13;;
33738;SDS011;20063;51.730;11.110;2023-02-26T12:35:48;2.95;;;1.73;;
33738;SDS011;20063;51.730;11.110;2023-02-26T12:41:05;4.63;;;1.88;;
33738;SDS011;20063;51.730;11.110;2023-02-26T12:43:54;2.13;;;1.50;;
33738;SDS011;20063;51.730;11.110;2023-02-26T12:46:38;2.65;;;1.90;;
33738;SDS011;20063;51.730;11.110;2023-02-26T12:57:01;9.93;;;2.17;;
33738;SDS011;20063;51.730;11.110;2023-02-26T12:59:57;1.60;;;1.40;;
33738;SDS011;20063;51.730;11.110;2023-02-26T13:13:44;6.75;;;1.52;;
33738;SDS011;20063;51.730;11.110;2023-02-26T13:19:07;4.40;;;1.63;;
33738;SDS011;20063;51.730;11.110;2023-02-26T13:21:50;5.70;;;1.90;;
33738;SDS011;20063;51.730;11.110;2023-02-26T13:24:22;3.15;;;1.75;;
33738;SDS011;20063;51.730;11.110;2023-02-26T13:26:52;1.92;;;1.33;;
33738;SDS011;20063;51.730;11.110;2023-02-26T13:29:26;6.72;;;1.48;;
33738;SDS011;20063;51.730;11.110;2023-02-26T13:32:07;6.00;;;1.63;;
33738;SDS011;20063;51.730;11.110;2023-02-26T13:34:40;4.18;;;1.27;;
33738;SDS011;20063;51.730;11.110;2023-02-26T13:37:19;5.28;;;1.80;;
33738;SDS011;20063;51.730;11.110;2023-02-26T13:40:23;3.42;;;1.45;;
33738;SDS011;20063;51.730;11.110;2023-02-26T13:48:55;5.30;;;1.80;;
33738;SDS011;20063;51.730;11.110;2023-02-26T13:51:35;2.40;;;1.65;;
33738;SDS011;20063;51.730;11.110;2023-02-26T13:56:42;6.78;;;1.92;;
33738;SDS011;20063;51.730;11.110;2023-02-26T13:59:51;4.93;;;1.58;;
33738;SDS011;20063;51.730;11.110;2023-02-26T14:04:51;3.35;;;1.45;;
33738;SDS011;20063;51.730;11.110;2023-02-26T14:07:53;2.40;;;1.67;;
33738;SDS011;20063;51.730;11.110;2023-02-26T14:10:24;4.05;;;1.52;;
33738;SDS011;20063;51.730;11.110;2023-02-26T14:15:51;4.85;;;1.60;;
33738;SDS011;20063;51.730;11.110;2023-02-26T14:29:38;3.10;;;1.80;;
33738;SDS011;20063;51.730;11.110;2023-02-26T14:34:35;4.13;;;1.85;;
33738;SDS011;20063;51.730;11.110;2023-02-26T14:37:11;3.53;;;1.73;;
33738;SDS011;20063;51.730;11.110;2023-02-26T14:39:42;2.35;;;1.30;;
33738;SDS011;20063;51.730;11.110;2023-02-26T14:42:22;4.10;;;1.65;;
33738;SDS011;20063;51.730;11.110;2023-02-26T14:45:26;3.38;;;1.58;;
33738;SDS011;20063;51.730;11.110;2023-02-26T14:47:53;4.30;;;2.00;;
33738;SDS011;20063;51.730;11.110;2023-02-26T14:50:21;12.23;;;4.15;;
33738;SDS011;20063;51.730;11.110;2023-02-26T14:55:41;14.00;;;6.05;;
33738;SDS011;20063;51.730;11.110;2023-02-26T14:58:15;5.88;;;2.05;;
33738;SDS011;20063;51.730;11.110;2023-02-26T15:01:10;5.40;;;1.88;;
33738;SDS011;20063;51.730;11.110;2023-02-26T15:09:31;5.55;;;2.22;;
33738;SDS011;20063;51.730;11.110;2023-02-26T15:12:06;6.63;;;2.45;;
33738;SDS011;20063;51.730;11.110;2023-02-26T15:26:01;1.50;;;1.30;;
33738;SDS011;20063;51.730;11.110;2023-02-26T15:28:33;3.40;;;1.30;;
33738;SDS011;20063;51.730;11.110;2023-02-26T15:31:03;3.50;;;1.52;;
33738;SDS011;20063;51.730;11.110;2023-02-26T15:33:30;2.67;;;1.40;;
33738;SDS011;20063;51.730;11.110;2023-02-26T15:35:57;2.30;;;1.58;;
33738;SDS011;20063;51.730;11.110;2023-02-26T15:38:23;1.75;;;1.60;;
33738;SDS011;20063;51.730;11.110;2023-02-26T15:40:50;4.28;;;1.70;;
33738;SDS011;20063;51.730;11.110;2023-02-26T15:43:21;2.95;;;1.52;;
33738;SDS011;20063;51.730;11.110;2023-02-26T15:45:50;3.50;;;1.55;;
33738;SDS011;20063;51.730;11.110;2023-02-26T15:48:20;5.07;;;1.65;;
33738;SDS011;20063;51.730;11.110;2023-02-26T15:50:55;1.40;;;1.20;;
33738;SDS011;20063;51.730;11.110;2023-02-26T15:55:55;3.50;;;1.45;;
33738;SDS011;20063;51.730;11.110;2023-02-26T15:58:29;8.55;;;1.90;;
33738;SDS011;20063;51.730;11.110;2023-02-26T16:00:59;4.80;;;1.63;;
33738;SDS011;20063;51.730;11.110;2023-02-26T16:03:31;4.57;;;2.00;;
33738;SDS011;20063;51.730;11.110;2023-02-26T16:05:59;3.15;;;1.38;;
33738;SDS011;20063;51.730;11.110;2023-02-26T16:08:25;7.00;;;1.58;;
33738;SDS011;20063;51.730;11.110;2023-02-26T16:10:52;4.63;;;2.35;;
33738;SDS011;20063;51.730;11.110;2023-02-26T16:13:41;4.68;;;1.95;;
33738;SDS011;20063;51.730;11.110;2023-02-26T16:16:07;1.50;;;1.40;;
33738;SDS011;20063;51.730;11.110;2023-02-26T16:18:38;4.68;;;3.15;;
33738;SDS011;20063;51.730;11.110;2023-02-26T16:21:07;6.07;;;2.60;;
33738;SDS011;20063;51.730;11.110;2023-02-26T16:23:38;6.60;;;2.78;;
33738;SDS011;20063;51.730;11.110;2023-02-26T16:26:10;7.18;;;2.20;;
33738;SDS011;20063;51.730;11.110;2023-02-26T16:28:52;5.55;;;3.00;;
33738;SDS011;20063;51.730;11.110;2023-02-26T16:31:23;11.02;;;4.13;;
33738;SDS011;20063;51.730;11.110;2023-02-26T16:33:53;11.60;;;4.63;;
33738;SDS011;20063;51.730;11.110;2023-02-26T16:36:25;14.50;;;5.45;;
33738;SDS011;20063;51.730;11.110;2023-02-26T16:39:07;13.98;;;7.32;;
33738;SDS011;20063;51.730;11.110;2023-02-26T16:41:42;13.63;;;6.53;;
33738;SDS011;20063;51.730;11.110;2023-02-26T16:47:02;9.27;;;5.43;;
33738;SDS011;20063;51.730;11.110;2023-02-26T16:49:30;12.38;;;7.00;;
33738;SDS011;20063;51.730;11.110;2023-02-26T16:51:58;11.82;;;5.95;;
33738;SDS011;20063;51.730;11.110;2023-02-26T16:54:26;4.35;;;2.70;;
33738;SDS011;20063;51.730;11.110;2023-02-26T16:59:38;3.60;;;2.15;;
33738;SDS011;20063;51.730;11.110;2023-02-26T17:02:11;4.90;;;2.03;;
33738;SDS011;20063;51.730;11.110;2023-02-26T17:04:40;3.20;;;2.10;;
33738;SDS011;20063;51.730;11.110;2023-02-26T17:07:16;4.25;;;2.30;;
33738;SDS011;20063;51.730;11.110;2023-02-26T17:09:50;7.53;;;3.55;;
33738;SDS011;20063;51.730;11.110;2023-02-26T17:12:21;7.32;;;3.20;;
33738;SDS011;20063;51.730;11.110;2023-02-26T17:14:59;5.85;;;4.28;;
33738;SDS011;20063;51.730;11.110;2023-02-26T17:17:25;5.30;;;2.38;;
33738;SDS011;20063;51.730;11.110;2023-02-26T17:19:51;4.97;;;1.98;;
33738;SDS011;20063;51.730;11.110;2023-02-26T17:22:19;5.55;;;2.03;;
33738;SDS011;20063;51.730;11.110;2023-02-26T17:24:49;4.38;;;1.80;;
33738;SDS011;20063;51.730;11.110;2023-02-26T17:27:27;8.05;;;1.90;;
33738;SDS011;20063;51.730;11.110;2023-02-26T17:29:56;3.63;;;2.33;;
33738;SDS011;20063;51.730;11.110;2023-02-26T17:32:23;7.72;;;3.78;;
33738;SDS011;20063;51.730;11.110;2023-02-26T17:34:51;5.82;;;3.00;;